createdAt,value
2018-03-30T00:00:48.182Z,8.90
2018-03-30T00:03:17.778Z,9.00
2018-03-30T00:05:47.174Z,9.10
2018-03-30T00:08:16.427Z,9.10
2018-03-30T00:10:50.631Z,9.20
2018-03-30T00:13:20.381Z,9.10
2018-03-30T00:15:49.801Z,9.20
2018-03-30T00:18:19.175Z,9.20
2018-03-30T00:20:53.420Z,9.20
2018-03-30T00:23:22.668Z,9.10
2018-03-30T00:25:55.426Z,9.30
2018-03-30T00:28:25.302Z,9.20
2018-03-30T00:30:59.479Z,9.30
2018-03-30T00:33:29.784Z,9.20
2018-03-30T00:36:02.383Z,9.20
2018-03-30T00:38:32.947Z,9.30
2018-03-30T00:41:14.669Z,9.30
2018-03-30T00:43:45.479Z,9.30
2018-03-30T00:46:15.280Z,9.30
2018-03-30T00:48:44.974Z,9.30
2018-03-30T00:51:14.849Z,9.40
2018-03-30T00:53:52.370Z,9.40
2018-03-30T00:56:22.102Z,9.50
2018-03-30T00:58:52.307Z,9.50
2018-03-30T01:01:22.168Z,9.50
2018-03-30T01:03:52.793Z,9.40
2018-03-30T01:06:22.943Z,9.40
2018-03-30T01:08:53.655Z,9.40
2018-03-30T01:11:23.289Z,9.50
2018-03-30T01:13:53.946Z,9.50
2018-03-30T01:16:25.806Z,9.50
2018-03-30T01:18:55.390Z,9.50
2018-03-30T01:21:36.678Z,9.50
2018-03-30T01:24:06.382Z,9.50
2018-03-30T01:26:45.857Z,9.60
2018-03-30T01:29:32.883Z,9.60
2018-03-30T01:32:02.521Z,9.60
2018-03-30T01:34:33.089Z,9.60
2018-03-30T01:37:03.317Z,9.60
2018-03-30T01:39:34.121Z,9.60
2018-03-30T01:42:04.078Z,9.70
2018-03-30T01:44:37.005Z,9.70
2018-03-30T01:47:07.480Z,9.70
2018-03-30T01:49:40.366Z,9.70
2018-03-30T01:52:25.587Z,9.70
2018-03-30T01:54:55.751Z,9.80
2018-03-30T01:57:25.774Z,9.70
2018-03-30T01:59:55.669Z,9.70
2018-03-30T02:02:25.953Z,9.70
2018-03-30T02:08:17.015Z,9.60
2018-03-30T02:10:51.963Z,9.70
2018-03-30T02:13:22.086Z,9.70
2018-03-30T02:15:55.243Z,9.70
2018-03-30T02:18:26.958Z,9.70
2018-03-30T02:21:13.343Z,9.70
2018-03-30T02:23:44.425Z,9.70
2018-03-30T02:26:17.694Z,9.70
2018-03-30T02:28:47.753Z,9.70
2018-03-30T02:31:18.210Z,9.60
2018-03-30T02:33:49.789Z,9.60
2018-03-30T02:36:20.042Z,9.60
2018-03-30T02:39:18.124Z,9.60
2018-03-30T02:44:50.373Z,9.60
2018-03-30T02:47:20.894Z,9.60
2018-03-30T02:49:50.817Z,9.50
2018-03-30T02:52:27.931Z,9.50
2018-03-30T02:54:58.471Z,9.50
2018-03-30T02:57:29.476Z,9.40
2018-03-30T02:59:59.440Z,9.40
2018-03-30T03:02:29.335Z,9.50
2018-03-30T03:04:59.812Z,9.50
2018-03-30T03:07:29.915Z,9.50
2018-03-30T03:09:59.938Z,9.40
2018-03-30T03:12:29.996Z,9.50
2018-03-30T03:15:00.136Z,9.50
2018-03-30T03:17:46.983Z,9.50
2018-03-30T03:20:17.478Z,9.50
2018-03-30T03:22:47.419Z,9.50
2018-03-30T03:25:17.401Z,9.50
2018-03-30T03:27:47.857Z,9.50
2018-03-30T03:30:18.146Z,9.50
2018-03-30T03:32:48.102Z,9.50
2018-03-30T03:35:17.793Z,9.50
2018-03-30T03:37:47.808Z,9.50
2018-03-30T03:40:21.490Z,9.40
2018-03-30T03:42:52.249Z,9.30
2018-03-30T03:45:23.005Z,9.30
2018-03-30T03:47:54.389Z,9.40
2018-03-30T03:50:25.621Z,9.30
2018-03-30T03:52:55.756Z,9.30
2018-03-30T03:56:12.103Z,9.30
2018-03-30T03:58:48.592Z,9.20
2018-03-30T04:01:19.621Z,9.20
2018-03-30T04:03:55.466Z,9.10
2018-03-30T04:06:25.531Z,9.20
2018-03-30T04:12:17.337Z,9.10
2018-03-30T04:14:47.637Z,9.20
2018-03-30T04:17:27.786Z,9.30
2018-03-30T04:23:41.451Z,9.20
2018-03-30T04:26:49.601Z,9.10
2018-03-30T04:29:53.711Z,9.10
2018-03-30T04:32:30.785Z,9.00
2018-03-30T04:35:14.036Z,9.00
2018-03-30T04:38:04.335Z,8.80
2018-03-30T04:40:34.138Z,8.80
2018-03-30T04:43:55.200Z,8.80
2018-03-30T04:49:59.759Z,8.90
2018-03-30T04:52:30.891Z,8.90
2018-03-30T04:55:00.564Z,8.90
2018-03-30T04:57:45.270Z,8.90
2018-03-30T05:04:02.674Z,8.70
2018-03-30T05:11:30.436Z,8.80
2018-03-30T05:14:00.730Z,8.80
2018-03-30T05:16:47.892Z,8.80
2018-03-30T05:19:18.893Z,8.80
2018-03-30T05:21:50.532Z,8.80
2018-03-30T05:24:20.796Z,8.80
2018-03-30T05:26:51.085Z,8.90
2018-03-30T05:29:38.275Z,8.90
2018-03-30T05:32:08.568Z,8.90
2018-03-30T05:34:41.683Z,8.80
2018-03-30T05:37:58.881Z,8.80
2018-03-30T05:40:29.737Z,8.80
2018-03-30T05:43:00.886Z,8.80
2018-03-30T05:45:31.791Z,8.80
2018-03-30T05:48:14.925Z,8.80
2018-03-30T05:51:06.873Z,8.80
2018-03-30T05:53:37.063Z,8.80
2018-03-30T05:56:13.963Z,8.80
2018-03-30T05:59:29.007Z,8.90
2018-03-30T06:01:59.838Z,8.80
2018-03-30T06:04:29.981Z,8.90
2018-03-30T06:07:27.500Z,8.90
2018-03-30T06:10:33.638Z,8.90
2018-03-30T06:13:08.257Z,8.70
2018-03-30T06:15:38.265Z,8.60
2018-03-30T06:18:19.475Z,8.50
2018-03-30T06:20:57.741Z,8.50
2018-03-30T06:23:32.770Z,8.50
2018-03-30T06:28:45.665Z,8.70
2018-03-30T06:31:19.413Z,8.80
2018-03-30T06:33:52.499Z,8.70
2018-03-30T06:36:24.422Z,8.80
2018-03-30T06:38:55.142Z,8.80
2018-03-30T06:44:24.292Z,8.80
2018-03-30T06:46:55.296Z,8.70
2018-03-30T06:49:26.589Z,8.70
2018-03-30T06:52:06.306Z,8.80
2018-03-30T06:54:36.098Z,8.80
2018-03-30T06:57:05.882Z,8.80
2018-03-30T06:59:35.763Z,8.90
2018-03-30T07:02:06.189Z,8.90
2018-03-30T07:04:36.585Z,9.00
2018-03-30T07:07:06.443Z,9.00
2018-03-30T07:09:35.924Z,9.00
2018-03-30T07:12:08.350Z,9.00
2018-03-30T07:14:44.706Z,9.20
2018-03-30T07:17:15.235Z,9.20
2018-03-30T07:19:50.590Z,9.20
2018-03-30T07:22:46.100Z,9.20
2018-03-30T07:25:19.867Z,9.30
2018-03-30T07:27:49.744Z,9.50
2018-03-30T07:30:19.394Z,9.60
2018-03-30T07:32:50.070Z,9.60
2018-03-30T07:41:27.245Z,10.00
2018-03-30T07:43:56.832Z,10.10
2018-03-30T07:49:13.561Z,10.30
2018-03-30T07:51:47.233Z,10.40
2018-03-30T07:54:17.707Z,10.40
2018-03-30T07:56:50.233Z,10.40
2018-03-30T07:59:19.630Z,10.30
2018-03-30T08:01:49.298Z,10.40
2018-03-30T08:04:18.784Z,10.50
2018-03-30T08:07:00.606Z,10.60
2018-03-30T08:09:29.823Z,10.70
2018-03-30T08:11:59.582Z,10.80
2018-03-30T08:14:29.278Z,10.80
2018-03-30T08:16:59.189Z,10.90
2018-03-30T08:19:28.950Z,10.90
2018-03-30T08:21:59.544Z,11.00
2018-03-30T08:24:28.850Z,11.10
2018-03-30T08:26:58.170Z,11.20
2018-03-30T08:29:27.686Z,11.30
2018-03-30T08:31:56.952Z,11.40
2018-03-30T08:34:26.282Z,11.60
2018-03-30T08:36:55.988Z,11.60
2018-03-30T08:39:26.615Z,11.60
2018-03-30T08:41:55.863Z,11.80
2018-03-30T08:44:28.482Z,11.90
2018-03-30T08:46:57.752Z,12.10
2018-03-30T08:49:30.806Z,12.30
2018-03-30T08:52:00.326Z,12.20
2018-03-30T08:54:33.001Z,12.30
2018-03-30T08:57:02.260Z,12.40
2018-03-30T08:59:34.661Z,12.30
2018-03-30T09:02:03.974Z,12.40
2018-03-30T09:04:38.734Z,12.50
2018-03-30T09:07:08.769Z,12.60
2018-03-30T09:09:41.859Z,12.80
2018-03-30T09:12:11.216Z,12.90
2018-03-30T09:14:43.124Z,13.20
2018-03-30T09:17:12.373Z,13.60
2018-03-30T09:19:59.666Z,14.20
2018-03-30T09:22:29.177Z,14.20
2018-03-30T09:24:58.552Z,14.30
2018-03-30T09:27:28.589Z,14.60
2018-03-30T09:29:58.724Z,14.50
2018-03-30T09:32:28.277Z,14.50
2018-03-30T09:34:58.480Z,14.70
2018-03-30T09:37:27.896Z,14.70
2018-03-30T09:40:01.015Z,14.50
2018-03-30T09:42:30.681Z,14.50
2018-03-30T09:45:04.534Z,14.20
2018-03-30T09:47:33.908Z,14.00
2018-03-30T09:50:08.097Z,13.90
2018-03-30T09:52:37.415Z,14.00
2018-03-30T09:55:14.074Z,14.10
2018-03-30T09:57:43.913Z,14.20
2018-03-30T10:00:20.287Z,14.20
2018-03-30T10:02:53.782Z,14.30
2018-03-30T10:05:23.161Z,14.30
2018-03-30T10:07:52.480Z,14.70
2018-03-30T10:10:23.013Z,15.20
2018-03-30T10:12:52.263Z,15.80
2018-03-30T10:15:23.297Z,16.60
2018-03-30T10:17:54.567Z,16.90
2018-03-30T10:20:24.648Z,16.90
2018-03-30T10:23:13.916Z,17.20
2018-03-30T10:25:43.478Z,17.50
2018-03-30T10:28:12.850Z,17.70
2018-03-30T10:30:42.139Z,17.40
2018-03-30T10:33:12.538Z,18.00
2018-03-30T10:35:41.835Z,18.00
2018-03-30T10:38:11.100Z,18.20
2018-03-30T10:40:41.635Z,18.20
2018-03-30T10:43:11.042Z,18.50
2018-03-30T10:45:40.314Z,18.80
2018-03-30T10:48:10.818Z,19.20
2018-03-30T10:50:40.850Z,19.30
2018-03-30T10:53:10.194Z,19.30
2018-03-30T10:55:41.936Z,19.40
2018-03-30T10:58:11.503Z,19.70
2018-03-30T11:00:44.354Z,19.80
2018-03-30T11:03:14.195Z,19.90
2018-03-30T11:05:46.931Z,19.60
2018-03-30T11:08:16.765Z,19.60
2018-03-30T11:13:25.649Z,19.50
2018-03-30T11:15:59.780Z,19.50
2018-03-30T11:18:29.565Z,19.70
2018-03-30T11:21:00.741Z,19.80
2018-03-30T11:23:30.359Z,19.80
2018-03-30T11:25:59.651Z,19.50
2018-03-30T11:28:29.362Z,19.60
2018-03-30T11:31:01.838Z,19.70
2018-03-30T11:33:31.414Z,19.80
2018-03-30T11:36:05.455Z,19.70
2018-03-30T11:38:34.769Z,19.50
2018-03-30T11:41:08.230Z,19.10
2018-03-30T11:43:37.524Z,19.20
2018-03-30T11:46:11.063Z,19.10
2018-03-30T11:48:40.338Z,19.00
2018-03-30T11:51:14.645Z,18.80
2018-03-30T11:53:44.994Z,18.40
2018-03-30T11:56:16.916Z,18.40
2018-03-30T11:58:46.566Z,18.30
2018-03-30T12:01:19.529Z,18.00
2018-03-30T12:03:48.856Z,18.00
2018-03-30T12:06:21.587Z,17.70
2018-03-30T12:08:54.287Z,17.60
2018-03-30T12:11:24.032Z,17.30
2018-03-30T12:13:53.428Z,17.20
2018-03-30T12:16:26.158Z,17.00
2018-03-30T12:18:55.525Z,17.10
2018-03-30T12:21:28.708Z,17.30
2018-03-30T12:23:58.264Z,17.30
2018-03-30T12:26:30.073Z,17.40
2018-03-30T12:28:59.441Z,17.50
2018-03-30T12:31:32.203Z,17.60
2018-03-30T12:34:01.556Z,17.60
2018-03-30T12:36:35.688Z,17.40
2018-03-30T12:39:05.384Z,17.40
2018-03-30T12:41:41.462Z,17.50
2018-03-30T12:44:14.417Z,17.40
2018-03-30T12:46:43.702Z,17.40
2018-03-30T12:49:12.870Z,17.40
2018-03-30T12:51:43.110Z,17.50
2018-03-30T12:54:12.428Z,17.30
2018-03-30T12:56:45.343Z,17.30
2018-03-30T12:59:14.809Z,17.00
2018-03-30T13:01:50.103Z,16.90
2018-03-30T13:04:19.436Z,16.80
2018-03-30T13:06:56.665Z,16.70
2018-03-30T13:09:26.782Z,16.80
2018-03-30T13:11:56.149Z,16.70
2018-03-30T13:14:25.669Z,16.70
2018-03-30T13:17:00.169Z,16.50
2018-03-30T13:19:29.404Z,16.50
2018-03-30T13:22:06.487Z,16.50
2018-03-30T13:24:36.536Z,16.40
2018-03-30T13:27:05.822Z,16.40
2018-03-30T13:29:35.120Z,16.50
2018-03-30T13:32:08.775Z,16.50
2018-03-30T13:34:38.512Z,16.20
2018-03-30T13:37:13.512Z,16.00
2018-03-30T13:39:43.816Z,16.00
2018-03-30T13:42:16.260Z,15.90
2018-03-30T13:44:45.956Z,16.00
2018-03-30T13:47:19.618Z,16.00
2018-03-30T13:49:49.386Z,15.90
2018-03-30T13:52:21.420Z,15.60
2018-03-30T13:54:51.485Z,15.40
2018-03-30T13:57:23.767Z,15.30
2018-03-30T13:59:53.320Z,15.40
2018-03-30T14:02:25.488Z,15.40
2018-03-30T14:04:55.973Z,15.40
2018-03-30T14:07:28.058Z,15.30
2018-03-30T14:09:58.727Z,15.40
2018-03-30T14:12:30.573Z,15.40
2018-03-30T14:15:00.149Z,15.50
2018-03-30T14:17:33.351Z,15.50
2018-03-30T14:20:03.627Z,15.30
2018-03-30T14:22:35.019Z,15.30
2018-03-30T14:25:05.363Z,15.00
2018-03-30T14:27:37.735Z,14.90
2018-03-30T14:30:07.516Z,15.10
2018-03-30T14:32:40.036Z,15.10
2018-03-30T14:35:09.568Z,15.20
2018-03-30T14:37:42.603Z,15.30
2018-03-30T14:40:12.960Z,15.10
2018-03-30T14:42:46.218Z,15.10
2018-03-30T14:45:16.337Z,15.20
2018-03-30T14:47:48.388Z,15.30
2018-03-30T14:50:17.948Z,15.20
2018-03-30T14:52:51.135Z,15.10
2018-03-30T14:55:20.611Z,15.00
2018-03-30T14:57:54.010Z,15.20
2018-03-30T15:00:23.756Z,15.20
2018-03-30T15:02:56.907Z,15.00
2018-03-30T15:05:26.842Z,15.00
2018-03-30T15:07:59.334Z,15.00
2018-03-30T15:10:28.844Z,15.00
2018-03-30T15:13:01.957Z,14.90
2018-03-30T15:15:32.295Z,14.50
2018-03-30T15:18:05.305Z,14.50
2018-03-30T15:20:34.896Z,14.50
2018-03-30T15:23:10.635Z,14.70
2018-03-30T15:25:41.000Z,14.80
2018-03-30T15:28:12.492Z,14.80
2018-03-30T15:30:42.302Z,14.70
2018-03-30T15:33:15.805Z,14.70
2018-03-30T15:35:45.620Z,14.80
2018-03-30T15:38:18.002Z,14.70
2018-03-30T15:40:48.307Z,14.40
2018-03-30T15:43:21.396Z,14.40
2018-03-30T15:45:51.143Z,14.40
2018-03-30T15:48:21.962Z,14.40
2018-03-30T15:50:51.451Z,14.40
2018-03-30T15:53:22.449Z,14.10
2018-03-30T15:55:52.007Z,13.90
2018-03-30T15:58:27.105Z,14.00
2018-03-30T16:00:57.070Z,13.90
2018-03-30T16:03:29.080Z,13.80
2018-03-30T16:05:58.604Z,13.90
2018-03-30T16:08:31.461Z,13.80
2018-03-30T16:11:01.032Z,13.60
2018-03-30T16:13:33.142Z,13.80
2018-03-30T16:16:04.724Z,13.80
2018-03-30T16:18:44.698Z,13.90
2018-03-30T16:21:12.740Z,13.90
2018-03-30T16:23:40.514Z,13.90
2018-03-30T16:26:08.256Z,13.70
2018-03-30T16:28:39.152Z,13.70
2018-03-30T16:31:06.930Z,13.70
2018-03-30T16:33:42.608Z,13.50
2018-03-30T16:36:10.330Z,13.50
2018-03-30T16:38:44.762Z,13.50
2018-03-30T16:41:13.219Z,13.50
2018-03-30T16:46:15.188Z,13.30
2018-03-30T16:51:18.595Z,12.90
2018-03-30T16:53:53.916Z,12.90
2018-03-30T16:56:22.834Z,12.90
2018-03-30T16:58:56.725Z,12.90
2018-03-30T17:01:24.442Z,12.80
2018-03-30T17:06:26.491Z,12.70
2018-03-30T17:08:54.516Z,12.60
2018-03-30T17:11:22.263Z,12.50
2018-03-30T17:13:49.941Z,12.50
2018-03-30T17:16:19.000Z,12.40
2018-03-30T17:18:47.035Z,12.40
2018-03-30T17:21:15.725Z,12.30
2018-03-30T17:23:43.794Z,12.20
2018-03-30T17:26:14.811Z,12.30
2018-03-30T17:28:43.282Z,12.00
2018-03-30T17:31:19.106Z,12.00
2018-03-30T17:33:48.973Z,12.00
2018-03-30T17:36:19.979Z,12.00
2018-03-30T17:38:49.139Z,11.90
2018-03-30T17:41:24.007Z,11.80
2018-03-30T17:43:51.887Z,11.80
2018-03-30T17:46:23.899Z,11.70
2018-03-30T17:48:51.672Z,11.60
2018-03-30T17:51:27.284Z,11.80
2018-03-30T17:53:55.083Z,11.70
2018-03-30T17:56:28.034Z,11.60
2018-03-30T17:58:56.861Z,11.50
2018-03-30T18:01:31.126Z,11.50
2018-03-30T18:03:58.917Z,11.40
2018-03-30T18:06:32.894Z,11.10
2018-03-30T18:09:00.958Z,11.00
2018-03-30T18:11:36.373Z,10.90
2018-03-30T18:14:04.357Z,11.00
2018-03-30T18:23:22.147Z,11.00
2018-03-30T18:25:49.994Z,10.70
2018-03-30T18:28:18.715Z,10.60
2018-03-30T18:30:49.775Z,10.60
2018-03-30T18:33:17.527Z,10.50
2018-03-30T18:35:51.812Z,10.60
2018-03-30T18:38:20.559Z,10.40
2018-03-30T18:40:57.347Z,10.40
2018-03-30T18:43:25.364Z,10.30
2018-03-30T18:46:01.087Z,10.20
2018-03-30T18:48:28.915Z,10.30
2018-03-30T18:51:02.700Z,10.20
2018-03-30T18:53:32.784Z,10.20
2018-03-30T18:56:06.119Z,10.30
2018-03-30T18:58:33.897Z,10.30
2018-03-30T19:01:08.058Z,10.30
2018-03-30T19:03:36.573Z,10.20
2018-03-30T19:08:40.326Z,10.00
2018-03-30T19:11:16.152Z,10.10
2018-03-30T19:13:44.189Z,10.10
2018-03-30T19:16:17.594Z,10.10
2018-03-30T19:18:45.360Z,10.00
2018-03-30T19:21:19.735Z,10.00
2018-03-30T19:23:47.690Z,9.80
2018-03-30T19:26:21.857Z,9.70
2018-03-30T19:28:50.697Z,9.80
2018-03-30T19:31:25.899Z,9.80
2018-03-30T19:33:53.728Z,9.70
2018-03-30T19:36:26.637Z,9.80
2018-03-30T19:38:54.448Z,9.80
2018-03-30T19:41:28.565Z,9.80
2018-03-30T19:43:56.509Z,9.80
2018-03-30T19:46:30.872Z,9.80
2018-03-30T19:48:58.820Z,9.70
2018-03-30T19:51:34.533Z,9.70
2018-03-30T19:54:03.198Z,9.70
2018-03-30T19:56:35.276Z,9.70
2018-03-30T19:59:03.156Z,9.60
2018-03-30T20:01:37.868Z,9.70
2018-03-30T20:04:06.361Z,9.80
2018-03-30T20:06:40.871Z,9.80
2018-03-30T20:09:08.967Z,9.80
2018-03-30T20:11:44.106Z,9.80
2018-03-30T20:14:11.866Z,9.70
2018-03-30T20:16:46.778Z,9.70
2018-03-30T20:21:56.732Z,9.60
2018-03-30T20:24:31.714Z,9.60
2018-03-30T20:27:00.672Z,9.50
2018-03-30T20:29:36.021Z,9.50
2018-03-30T20:32:04.204Z,9.40
2018-03-30T20:34:31.993Z,9.40
2018-03-30T20:37:00.611Z,9.40
2018-03-30T20:39:28.625Z,9.40
2018-03-30T20:42:03.763Z,9.50
2018-03-30T20:44:31.762Z,9.60
2018-03-30T20:47:06.456Z,9.60
2018-03-30T20:49:35.860Z,9.70
2018-03-30T20:52:09.804Z,9.60
2018-03-30T20:54:37.975Z,9.70
2018-03-30T20:57:12.845Z,9.70
2018-03-30T20:59:40.747Z,9.70
2018-03-30T21:02:19.194Z,9.80
2018-03-30T21:04:47.196Z,9.80
2018-03-30T21:07:17.488Z,9.70
2018-03-30T21:09:46.502Z,9.80
2018-03-30T21:12:19.880Z,9.80
2018-03-30T21:14:47.622Z,9.80
2018-03-30T21:17:22.137Z,9.80
2018-03-30T21:19:50.027Z,9.60
2018-03-30T21:22:25.354Z,9.60
2018-03-30T21:24:53.214Z,9.60
2018-03-30T21:27:26.899Z,9.50
2018-03-30T21:29:55.417Z,9.50
2018-03-30T21:32:30.725Z,9.30
2018-03-30T21:34:59.272Z,9.30
2018-03-30T21:37:30.108Z,9.20
2018-03-30T21:39:57.927Z,9.30
2018-03-30T21:42:31.163Z,9.40
2018-03-30T21:45:00.113Z,9.50
2018-03-30T21:47:33.667Z,9.50
2018-03-30T21:50:01.397Z,9.40
2018-03-30T21:52:50.471Z,9.50
2018-03-30T21:55:18.164Z,9.40
2018-03-30T21:57:46.115Z,9.30
2018-03-30T22:00:14.119Z,9.20
2018-03-30T22:02:43.117Z,9.30
2018-03-30T22:05:13.104Z,9.30
2018-03-30T22:07:45.535Z,9.20
2018-03-30T22:10:14.187Z,9.20
2018-03-30T22:12:47.616Z,9.10
2018-03-30T22:15:15.389Z,9.20
2018-03-30T22:20:18.168Z,9.20
2018-03-30T22:25:19.794Z,9.10
2018-03-30T22:30:32.820Z,9.00
2018-03-30T22:33:01.341Z,9.00
2018-03-30T22:35:30.468Z,9.00
2018-03-30T22:38:05.005Z,9.00
2018-03-30T22:40:32.769Z,9.10
2018-03-30T22:43:07.696Z,9.10
2018-03-30T22:45:36.596Z,9.10
2018-03-30T22:50:38.535Z,9.20
2018-03-30T22:55:40.328Z,9.20
2018-03-30T22:58:08.382Z,9.10
2018-03-30T23:00:37.418Z,9.00
2018-03-30T23:03:05.587Z,8.90
2018-03-30T23:05:37.406Z,8.90
2018-03-30T23:08:05.157Z,9.00
2018-03-30T23:10:33.214Z,9.00
2018-03-30T23:13:01.139Z,9.00
2018-03-30T23:15:28.919Z,9.10
2018-03-30T23:17:56.721Z,9.10
2018-03-30T23:20:28.867Z,9.10
2018-03-30T23:22:57.462Z,8.90
2018-03-30T23:25:32.493Z,8.90
2018-03-30T23:28:00.341Z,8.80
2018-03-30T23:30:38.438Z,8.70
2018-03-30T23:33:07.368Z,8.70
2018-03-30T23:35:36.326Z,8.70
2018-03-30T23:38:04.371Z,8.70
2018-03-30T23:40:38.841Z,8.70
2018-03-30T23:43:06.763Z,8.80
2018-03-30T23:45:43.039Z,8.70
2018-03-30T23:48:10.861Z,8.60
2018-03-30T23:50:45.165Z,8.60
2018-03-30T23:53:13.336Z,8.50
2018-03-30T23:55:50.546Z,8.40
2018-03-30T23:58:18.357Z,8.50
